createdAt,value
2023-10-03T00:00:34.884Z,15.76
2023-10-03T00:04:14.304Z,15.76
2023-10-03T00:07:16.281Z,15.76
2023-10-03T00:10:19.925Z,15.75
2023-10-03T00:13:22.532Z,15.72
2023-10-03T00:16:24.411Z,15.68
2023-10-03T00:19:26.313Z,15.64
2023-10-03T00:22:28.419Z,15.60
2023-10-03T00:25:31.160Z,15.58
2023-10-03T00:28:34.300Z,15.56
2023-10-03T00:31:36.328Z,15.55
2023-10-03T00:34:57.180Z,15.51
2023-10-03T00:38:35.970Z,15.49
2023-10-03T00:41:38.162Z,15.49
2023-10-03T00:44:40.279Z,15.51
2023-10-03T00:47:42.319Z,15.53
2023-10-03T00:50:45.536Z,15.53
2023-10-03T00:53:51.452Z,15.51
2023-10-03T00:56:53.531Z,15.50
2023-10-03T00:59:59.383Z,15.48
2023-10-03T01:03:01.484Z,15.47
2023-10-03T01:06:12.985Z,15.47
2023-10-03T01:09:23.594Z,15.45
2023-10-03T01:12:26.310Z,15.42
2023-10-03T01:15:29.326Z,15.38
2023-10-03T01:18:32.533Z,15.36
2023-10-03T01:21:35.496Z,15.35
2023-10-03T01:24:39.076Z,15.31
2023-10-03T01:27:40.929Z,15.27
2023-10-03T01:30:43.040Z,15.21
2023-10-03T01:33:46.904Z,15.16
2023-10-03T01:36:48.776Z,15.13
2023-10-03T01:39:50.731Z,15.09
2023-10-03T01:42:52.805Z,15.04
2023-10-03T01:45:55.624Z,14.99
2023-10-03T01:48:57.689Z,14.93
2023-10-03T01:51:59.549Z,14.89
2023-10-03T01:55:01.562Z,14.86
2023-10-03T01:58:04.862Z,14.85
2023-10-03T02:01:06.816Z,14.85
2023-10-03T02:04:08.951Z,14.84
2023-10-03T02:07:12.462Z,14.83
2023-10-03T02:10:14.986Z,14.83
2023-10-03T02:13:19.012Z,14.83
2023-10-03T02:16:22.912Z,14.84
2023-10-03T02:19:25.035Z,14.85
2023-10-03T02:22:26.954Z,14.86
2023-10-03T02:25:29.775Z,14.88
2023-10-03T02:28:34.135Z,14.87
2023-10-03T02:31:38.136Z,14.86
2023-10-03T02:34:40.290Z,14.85
2023-10-03T02:37:42.780Z,14.84
2023-10-03T02:40:44.779Z,14.82
2023-10-03T02:43:47.668Z,14.80
2023-10-03T02:46:56.022Z,14.77
2023-10-03T02:49:59.571Z,14.75
2023-10-03T02:53:12.103Z,14.72
2023-10-03T02:56:14.659Z,14.72
2023-10-03T02:59:16.812Z,14.71
2023-10-03T03:02:18.798Z,14.70
2023-10-03T03:05:23.622Z,14.69
2023-10-03T03:08:29.352Z,14.70
2023-10-03T03:11:32.559Z,14.71
2023-10-03T03:14:34.561Z,14.72
2023-10-03T03:17:36.849Z,14.74
2023-10-03T03:20:42.926Z,14.78
2023-10-03T03:24:01.197Z,14.83
2023-10-03T03:27:11.827Z,14.86
2023-10-03T03:30:28.800Z,14.88
2023-10-03T03:33:31.956Z,14.89
2023-10-03T03:36:35.416Z,14.90
2023-10-03T03:39:37.350Z,14.90
2023-10-03T03:42:39.328Z,14.88
2023-10-03T03:45:41.596Z,14.87
2023-10-03T03:48:43.605Z,14.86
2023-10-03T03:51:45.745Z,14.87
2023-10-03T03:54:50.116Z,14.86
2023-10-03T03:57:52.529Z,14.86
2023-10-03T04:00:55.528Z,14.85
2023-10-03T04:04:00.037Z,14.82
2023-10-03T04:07:02.888Z,14.79
2023-10-03T04:10:14.334Z,14.77
2023-10-03T04:13:18.062Z,14.73
2023-10-03T04:16:22.453Z,14.71
2023-10-03T04:19:24.379Z,14.67
2023-10-03T04:22:29.320Z,14.66
2023-10-03T04:25:33.177Z,14.65
2023-10-03T04:28:35.716Z,14.62
2023-10-03T04:31:38.040Z,14.61
2023-10-03T04:34:39.922Z,14.60
2023-10-03T04:37:45.093Z,14.60
2023-10-03T04:40:48.192Z,14.59
2023-10-03T04:43:50.470Z,14.58
2023-10-03T04:46:52.343Z,14.57
2023-10-03T04:50:00.450Z,14.55
2023-10-03T04:53:03.432Z,14.53
2023-10-03T04:56:05.337Z,14.54
2023-10-03T04:59:08.304Z,14.54
2023-10-03T05:02:11.767Z,14.55
2023-10-03T05:05:24.737Z,14.55
2023-10-03T05:08:26.742Z,14.56
2023-10-03T05:11:30.345Z,14.56
2023-10-03T05:14:33.188Z,14.57
2023-10-03T05:17:36.444Z,14.58
2023-10-03T05:20:38.594Z,14.59
2023-10-03T05:23:41.975Z,14.62
2023-10-03T05:26:43.934Z,14.64
2023-10-03T05:29:46.159Z,14.66
2023-10-03T05:32:48.293Z,14.68
2023-10-03T05:35:50.574Z,14.72
2023-10-03T05:38:52.584Z,14.78
2023-10-03T05:41:57.717Z,14.84
2023-10-03T05:44:59.750Z,14.88
2023-10-03T05:48:03.791Z,14.92
2023-10-03T05:51:08.690Z,14.94
2023-10-03T05:54:10.700Z,14.97
2023-10-03T05:57:12.582Z,15.02
2023-10-03T06:00:21.859Z,15.06
2023-10-03T06:03:23.916Z,15.11
2023-10-03T06:06:29.469Z,15.14
2023-10-03T06:09:31.359Z,15.17
2023-10-03T06:12:33.321Z,15.23
2023-10-03T06:15:37.027Z,15.31
2023-10-03T06:18:42.303Z,15.38
2023-10-03T06:21:44.558Z,15.45
2023-10-03T06:24:47.518Z,15.50
2023-10-03T06:27:49.443Z,15.55
2023-10-03T06:30:52.959Z,15.61
2023-10-03T06:33:55.148Z,15.69
2023-10-03T06:36:57.291Z,15.74
2023-10-03T06:39:59.189Z,15.80
2023-10-03T06:43:01.220Z,15.85
2023-10-03T06:46:06.414Z,15.91
2023-10-03T06:49:11.173Z,15.99
2023-10-03T06:52:13.128Z,16.08
2023-10-03T06:55:16.406Z,16.18
2023-10-03T06:58:18.379Z,16.25
2023-10-03T07:01:20.309Z,16.33
2023-10-03T07:04:22.359Z,16.38
2023-10-03T07:07:24.481Z,16.43
2023-10-03T07:10:26.662Z,16.49
2023-10-03T07:13:29.658Z,16.58
2023-10-03T07:16:38.745Z,16.65
2023-10-03T07:19:41.480Z,16.73
2023-10-03T07:22:43.464Z,16.78
2023-10-03T07:25:45.535Z,16.84
2023-10-03T07:28:47.619Z,16.89
2023-10-03T07:31:49.514Z,16.96
2023-10-03T07:34:51.446Z,17.04
2023-10-03T07:37:53.345Z,17.10
2023-10-03T07:40:55.423Z,17.16
2023-10-03T07:43:57.332Z,17.21
2023-10-03T07:46:59.310Z,17.28
2023-10-03T07:50:01.428Z,17.34
2023-10-03T07:53:11.734Z,17.42
2023-10-03T07:56:30.598Z,17.50
2023-10-03T07:59:32.980Z,17.57
2023-10-03T08:02:35.151Z,17.63
2023-10-03T08:05:38.263Z,17.68
2023-10-03T08:08:40.220Z,17.73
2023-10-03T08:11:46.806Z,17.79
2023-10-03T08:14:52.529Z,17.86
2023-10-03T08:17:56.934Z,17.93
2023-10-03T08:20:58.912Z,17.98
2023-10-03T08:24:10.346Z,18.03
2023-10-03T08:27:19.176Z,18.08
2023-10-03T08:30:28.956Z,18.14
2023-10-03T08:33:37.034Z,18.21
2023-10-03T08:36:39.061Z,18.30
2023-10-03T08:39:41.294Z,18.38
2023-10-03T08:42:44.853Z,18.44
2023-10-03T08:45:53.379Z,18.49
2023-10-03T08:49:01.348Z,18.53
2023-10-03T08:52:06.800Z,18.61
2023-10-03T08:55:09.931Z,18.68
2023-10-03T08:58:13.847Z,18.75
2023-10-03T09:01:20.063Z,18.83
2023-10-03T09:04:24.009Z,18.90
2023-10-03T09:07:26.026Z,18.98
2023-10-03T09:10:31.883Z,19.04
2023-10-03T09:13:34.630Z,19.08
2023-10-03T09:16:39.310Z,19.12
2023-10-03T09:19:44.728Z,19.20
2023-10-03T09:22:47.504Z,19.27
2023-10-03T09:25:56.340Z,19.35
2023-10-03T09:28:59.261Z,19.43
2023-10-03T09:32:13.528Z,19.50
2023-10-03T09:35:15.725Z,19.58
2023-10-03T09:38:21.884Z,19.65
2023-10-03T09:41:26.858Z,19.70
2023-10-03T09:44:31.967Z,19.74
2023-10-03T09:47:38.388Z,19.80
2023-10-03T09:50:52.354Z,19.86
2023-10-03T09:53:57.282Z,19.95
2023-10-03T09:57:01.389Z,20.04
2023-10-03T10:00:24.058Z,20.13
2023-10-03T10:03:33.902Z,20.22
2023-10-03T10:07:00.179Z,20.30
2023-10-03T10:10:10.570Z,20.40
2023-10-03T10:13:21.510Z,20.53
2023-10-03T10:16:24.496Z,20.63
2023-10-03T10:20:06.109Z,20.72
2023-10-03T10:23:11.997Z,20.85
2023-10-03T10:26:31.533Z,20.94
2023-10-03T10:29:36.344Z,21.06
2023-10-03T10:32:38.983Z,21.14
2023-10-03T10:36:10.962Z,21.22
2023-10-03T10:39:13.830Z,21.30
2023-10-03T10:42:16.689Z,21.36
2023-10-03T10:45:21.416Z,21.42
2023-10-03T10:48:41.513Z,21.46
2023-10-03T10:51:55.985Z,21.50
2023-10-03T10:54:59.753Z,21.56
2023-10-03T10:58:10.418Z,21.60
2023-10-03T11:01:13.992Z,21.65
2023-10-03T11:04:26.665Z,21.71
2023-10-03T11:07:30.079Z,21.76
2023-10-03T11:10:35.781Z,21.81
2023-10-03T11:13:46.584Z,21.86
2023-10-03T11:16:48.619Z,21.94
2023-10-03T11:19:51.804Z,22.00
2023-10-03T11:22:55.527Z,22.06
2023-10-03T11:25:58.624Z,22.13
2023-10-03T11:29:00.638Z,22.19
2023-10-03T11:32:04.382Z,22.26
2023-10-03T11:35:21.519Z,22.34
2023-10-03T11:38:23.492Z,22.41
2023-10-03T11:41:35.114Z,22.49
2023-10-03T11:44:37.911Z,22.56
2023-10-03T11:47:40.477Z,22.61
2023-10-03T11:50:43.529Z,22.64
2023-10-03T11:53:46.304Z,22.67
2023-10-03T11:56:48.672Z,22.69
2023-10-03T11:59:50.786Z,22.70
2023-10-03T12:02:53.318Z,22.72
2023-10-03T12:05:57.666Z,22.73
2023-10-03T12:08:59.643Z,22.76
2023-10-03T12:12:01.845Z,22.79
2023-10-03T12:15:12.725Z,22.83
2023-10-03T12:18:16.126Z,22.89
2023-10-03T12:21:18.653Z,22.95
2023-10-03T12:24:20.943Z,23.03
2023-10-03T12:27:22.986Z,23.11
2023-10-03T12:30:25.754Z,23.18
2023-10-03T12:33:29.106Z,23.23
2023-10-03T12:36:34.625Z,23.28
2023-10-03T12:39:36.670Z,23.33
2023-10-03T12:42:41.524Z,23.38
2023-10-03T12:45:43.532Z,23.43
2023-10-03T12:48:46.334Z,23.50
2023-10-03T12:51:49.144Z,23.57
2023-10-03T12:54:52.209Z,23.65
2023-10-03T12:58:04.090Z,23.70
2023-10-03T13:01:06.098Z,23.75
2023-10-03T13:04:08.273Z,23.78
2023-10-03T13:07:12.480Z,23.80
2023-10-03T13:10:15.953Z,23.80
2023-10-03T13:13:17.847Z,23.81
2023-10-03T13:16:20.927Z,23.81
2023-10-03T13:19:24.674Z,23.82
2023-10-03T13:22:28.072Z,23.82
2023-10-03T13:25:30.074Z,23.83
2023-10-03T13:28:32.532Z,23.84
2023-10-03T13:31:36.687Z,23.85
2023-10-03T13:34:38.829Z,23.87
2023-10-03T13:37:40.652Z,23.87
2023-10-03T13:40:44.010Z,23.87
2023-10-03T13:43:45.929Z,23.86
2023-10-03T13:46:47.930Z,23.86
2023-10-03T13:49:50.098Z,23.86
2023-10-03T13:52:55.447Z,23.87
2023-10-03T13:55:59.466Z,23.87
2023-10-03T13:59:03.402Z,23.89
2023-10-03T14:02:05.877Z,23.91
2023-10-03T14:05:10.496Z,23.94
2023-10-03T14:08:12.522Z,23.96
2023-10-03T14:11:21.632Z,23.98
2023-10-03T14:14:24.300Z,23.98
2023-10-03T14:17:26.413Z,23.97
2023-10-03T14:20:29.223Z,23.97
2023-10-03T14:23:32.313Z,23.97
2023-10-03T14:26:35.357Z,23.97
2023-10-03T14:29:38.027Z,23.96
2023-10-03T14:32:43.357Z,23.94
2023-10-03T14:35:46.467Z,23.92
2023-10-03T14:38:49.369Z,23.89
2023-10-03T14:41:52.334Z,23.86
2023-10-03T14:44:54.261Z,23.83
2023-10-03T14:47:59.567Z,23.78
2023-10-03T14:51:02.235Z,23.74
2023-10-03T14:54:05.153Z,23.70
2023-10-03T14:57:07.119Z,23.65
2023-10-03T15:00:09.990Z,23.60
2023-10-03T15:03:12.007Z,23.54
2023-10-03T15:06:14.183Z,23.48
2023-10-03T15:09:16.085Z,23.42
2023-10-03T15:12:19.033Z,23.36
2023-10-03T15:15:21.144Z,23.30
2023-10-03T15:18:25.032Z,23.23
2023-10-03T15:21:27.213Z,23.15
2023-10-03T15:24:30.677Z,23.08
2023-10-03T15:27:34.189Z,23.02
2023-10-03T15:30:43.215Z,22.95
2023-10-03T15:33:46.044Z,22.88
2023-10-03T15:36:48.524Z,22.82
2023-10-03T15:39:52.400Z,22.77
2023-10-03T15:42:55.273Z,22.69
2023-10-03T15:46:00.879Z,22.63
2023-10-03T15:49:03.414Z,22.56
2023-10-03T15:52:05.638Z,22.49
2023-10-03T15:55:13.303Z,22.42
2023-10-03T15:58:15.274Z,22.36
2023-10-03T16:01:17.520Z,22.29
2023-10-03T16:04:19.910Z,22.21
2023-10-03T16:07:21.931Z,22.15
2023-10-03T16:10:24.313Z,22.09
2023-10-03T16:13:26.255Z,22.02
2023-10-03T16:16:28.303Z,21.97
2023-10-03T16:19:31.366Z,21.92
2023-10-03T16:22:34.192Z,21.85
2023-10-03T16:25:38.786Z,21.79
2023-10-03T16:28:40.761Z,21.73
2023-10-03T16:31:42.759Z,21.68
2023-10-03T16:34:44.735Z,21.63
2023-10-03T16:37:46.630Z,21.58
2023-10-03T16:40:48.919Z,21.53
2023-10-03T16:43:50.932Z,21.47
2023-10-03T16:46:53.899Z,21.43
2023-10-03T16:49:56.539Z,21.38
2023-10-03T16:52:58.560Z,21.34
2023-10-03T16:56:01.118Z,21.32
2023-10-03T16:59:03.881Z,21.31
2023-10-03T17:02:05.994Z,21.31
2023-10-03T17:05:16.125Z,21.31
2023-10-03T17:08:18.381Z,21.32
2023-10-03T17:11:20.782Z,21.31
2023-10-03T17:14:22.665Z,21.30
2023-10-03T17:17:24.574Z,21.29
2023-10-03T17:20:26.627Z,21.26
2023-10-03T17:23:29.957Z,21.23
2023-10-03T17:26:33.369Z,21.19
2023-10-03T17:29:35.484Z,21.16
2023-10-03T17:32:38.017Z,21.13
2023-10-03T17:35:39.981Z,21.09
2023-10-03T17:38:41.879Z,21.08
2023-10-03T17:41:43.835Z,21.08
2023-10-03T17:44:48.609Z,21.07
2023-10-03T17:47:50.690Z,21.06
2023-10-03T17:50:52.835Z,21.06
2023-10-03T17:53:55.578Z,21.04
2023-10-03T17:56:57.831Z,21.01
2023-10-03T18:00:06.838Z,20.97
2023-10-03T18:03:09.183Z,20.92
2023-10-03T18:06:11.434Z,20.87
2023-10-03T18:09:15.492Z,20.82
2023-10-03T18:12:18.039Z,20.77
2023-10-03T18:15:20.114Z,20.73
2023-10-03T18:18:22.279Z,20.71
2023-10-03T18:21:24.542Z,20.69
2023-10-03T18:24:27.758Z,20.67
2023-10-03T18:27:30.274Z,20.65
2023-10-03T18:30:33.175Z,20.62
2023-10-03T18:33:35.312Z,20.58
2023-10-03T18:36:37.414Z,20.53
2023-10-03T18:39:39.337Z,20.47
2023-10-03T18:42:41.272Z,20.41
2023-10-03T18:45:55.664Z,20.36
2023-10-03T18:48:59.739Z,20.30
2023-10-03T18:52:02.034Z,20.24
2023-10-03T18:55:04.177Z,20.21
2023-10-03T18:58:06.045Z,20.20
2023-10-03T19:01:16.604Z,20.18
2023-10-03T19:04:20.479Z,20.17
2023-10-03T19:07:22.589Z,20.15
2023-10-03T19:10:24.487Z,20.11
2023-10-03T19:13:27.997Z,20.07
2023-10-03T19:16:30.003Z,20.03
2023-10-03T19:19:37.444Z,19.98
2023-10-03T19:22:39.511Z,19.94
2023-10-03T19:25:41.723Z,19.89
2023-10-03T19:28:43.861Z,19.82
2023-10-03T19:31:45.873Z,19.79
2023-10-03T19:34:48.450Z,19.77
2023-10-03T19:37:50.468Z,19.77
2023-10-03T19:40:52.332Z,19.76
2023-10-03T19:43:57.229Z,19.76
2023-10-03T19:47:01.493Z,19.74
2023-10-03T19:50:04.770Z,19.71
2023-10-03T19:53:06.996Z,19.68
2023-10-03T19:56:11.845Z,19.64
2023-10-03T19:59:13.766Z,19.60
2023-10-03T20:02:16.119Z,19.56
2023-10-03T20:05:17.991Z,19.52
2023-10-03T20:08:19.890Z,19.50
2023-10-03T20:11:21.821Z,19.50
2023-10-03T20:14:24.658Z,19.51
2023-10-03T20:17:26.530Z,19.52
2023-10-03T20:20:29.674Z,19.52
2023-10-03T20:23:33.650Z,19.52
2023-10-03T20:26:35.545Z,19.51
2023-10-03T20:29:37.403Z,19.48
2023-10-03T20:32:40.813Z,19.44
2023-10-03T20:35:42.782Z,19.40
2023-10-03T20:38:44.765Z,19.36
2023-10-03T20:41:47.133Z,19.35
2023-10-03T20:44:49.153Z,19.33
2023-10-03T20:47:51.422Z,19.34
2023-10-03T20:50:53.426Z,19.35
2023-10-03T20:53:55.356Z,19.35
2023-10-03T20:56:57.382Z,19.35
2023-10-03T21:00:00.322Z,19.34
2023-10-03T21:03:02.474Z,19.31
2023-10-03T21:06:05.245Z,19.29
2023-10-03T21:09:11.870Z,19.27
2023-10-03T21:12:13.794Z,19.25
2023-10-03T21:15:16.849Z,19.25
2023-10-03T21:18:19.470Z,19.26
2023-10-03T21:21:21.531Z,19.28
2023-10-03T21:24:24.093Z,19.28
2023-10-03T21:27:27.269Z,19.28
2023-10-03T21:30:29.335Z,19.26
2023-10-03T21:33:31.455Z,19.23
2023-10-03T21:36:33.499Z,19.20
2023-10-03T21:39:35.583Z,19.16
2023-10-03T21:42:41.215Z,19.15
2023-10-03T21:45:43.572Z,19.19
2023-10-03T21:48:45.588Z,19.21
2023-10-03T21:51:48.080Z,19.23
2023-10-03T21:54:51.736Z,19.26
2023-10-03T21:57:54.555Z,19.29
2023-10-03T22:00:59.369Z,19.33
2023-10-03T22:04:01.941Z,19.39
2023-10-03T22:07:04.374Z,19.45
2023-10-03T22:10:09.863Z,19.58
2023-10-03T22:13:12.961Z,19.74
2023-10-03T22:16:16.629Z,19.89
2023-10-03T22:19:21.342Z,19.96
2023-10-03T22:22:23.946Z,19.90
2023-10-03T22:25:26.109Z,19.75
2023-10-03T22:28:28.002Z,19.61
2023-10-03T22:31:30.168Z,19.47
2023-10-03T22:34:33.991Z,19.33
2023-10-03T22:37:36.590Z,19.18
2023-10-03T22:40:40.177Z,19.03
2023-10-03T22:43:42.076Z,18.92
2023-10-03T22:46:44.030Z,18.79
2023-10-03T22:49:45.906Z,18.69
2023-10-03T22:52:48.972Z,18.58
2023-10-03T22:55:52.077Z,18.46
2023-10-03T22:58:54.083Z,18.30
2023-10-03T23:01:56.328Z,18.12
2023-10-03T23:04:58.322Z,17.87
2023-10-03T23:08:00.562Z,17.60
2023-10-03T23:11:03.826Z,17.36
2023-10-03T23:14:05.786Z,17.15
2023-10-03T23:17:07.667Z,17.01
2023-10-03T23:20:11.608Z,16.85
2023-10-03T23:23:13.501Z,16.67
2023-10-03T23:26:15.598Z,16.47
2023-10-03T23:29:17.450Z,16.35
2023-10-03T23:32:19.473Z,16.28
2023-10-03T23:35:21.935Z,16.22
2023-10-03T23:38:24.274Z,16.17
2023-10-03T23:41:28.974Z,16.12
2023-10-03T23:44:31.282Z,16.10
2023-10-03T23:47:35.086Z,16.09
2023-10-03T23:50:37.038Z,16.10
2023-10-03T23:53:38.924Z,16.10
2023-10-03T23:56:43.352Z,16.09
2023-10-03T23:59:45.252Z,16.08
